sensor_id;sensor_type;location;lat;lon;timestamp;temperature;humidity
2539;DHT22;1280;49.760;9.664;2022-08-03T00:02:17;21.90;59.90
2539;DHT22;1280;49.760;9.664;2022-08-03T00:04:45;21.90;60.00
2539;DHT22;1280;49.760;9.664;2022-08-03T00:07:14;21.90;60.10
2539;DHT22;1280;49.760;9.664;2022-08-03T00:10:04;21.90;60.20
2539;DHT22;1280;49.760;9.664;2022-08-03T00:12:32;21.90;60.20
2539;DHT22;1280;49.760;9.664;2022-08-03T00:15:02;21.90;60.20
2539;DHT22;1280;49.760;9.664;2022-08-03T00:17:40;21.90;60.30
2539;DHT22;1280;49.760;9.664;2022-08-03T00:20:19;21.90;60.30
2539;DHT22;1280;49.760;9.664;2022-08-03T00:22:49;21.90;60.40
2539;DHT22;1280;49.760;9.664;2022-08-03T00:25:17;21.90;60.40
2539;DHT22;1280;49.760;9.664;2022-08-03T00:27:45;21.80;60.50
2539;DHT22;1280;49.760;9.664;2022-08-03T00:30:16;21.80;60.50
2539;DHT22;1280;49.760;9.664;2022-08-03T00:32:43;21.70;60.50
2539;DHT22;1280;49.760;9.664;2022-08-03T00:35:11;21.60;60.80
2539;DHT22;1280;49.760;9.664;2022-08-03T00:38:01;21.50;60.90
2539;DHT22;1280;49.760;9.664;2022-08-03T00:40:29;21.50;61.00
2539;DHT22;1280;49.760;9.664;2022-08-03T00:42:58;21.50;61.10
2539;DHT22;1280;49.760;9.664;2022-08-03T00:45:28;21.40;61.10
2539;DHT22;1280;49.760;9.664;2022-08-03T00:47:57;21.40;61.10
2539;DHT22;1280;49.760;9.664;2022-08-03T00:50:26;21.40;61.10
2539;DHT22;1280;49.760;9.664;2022-08-03T00:52:56;21.30;61.00
2539;DHT22;1280;49.760;9.664;2022-08-03T00:55:26;21.20;61.00
2539;DHT22;1280;49.760;9.664;2022-08-03T00:57:54;21.10;61.10
2539;DHT22;1280;49.760;9.664;2022-08-03T01:00:24;21.00;61.30
2539;DHT22;1280;49.760;9.664;2022-08-03T01:02:53;21.00;61.30
2539;DHT22;1280;49.760;9.664;2022-08-03T01:05:21;20.90;61.50
2539;DHT22;1280;49.760;9.664;2022-08-03T01:08:01;20.90;61.60
2539;DHT22;1280;49.760;9.664;2022-08-03T01:10:37;20.90;61.80
2539;DHT22;1280;49.760;9.664;2022-08-03T01:13:16;20.90;61.80
2539;DHT22;1280;49.760;9.664;2022-08-03T01:16:11;20.90;61.80
2539;DHT22;1280;49.760;9.664;2022-08-03T01:18:44;20.90;61.90
2539;DHT22;1280;49.760;9.664;2022-08-03T01:21:23;20.80;62.00
2539;DHT22;1280;49.760;9.664;2022-08-03T01:24:02;20.80;62.00
2539;DHT22;1280;49.760;9.664;2022-08-03T01:26:51;20.80;62.10
2539;DHT22;1280;49.760;9.664;2022-08-03T01:29:50;20.80;62.10
2539;DHT22;1280;49.760;9.664;2022-08-03T01:32:20;20.80;62.10
2539;DHT22;1280;49.760;9.664;2022-08-03T01:35:11;20.80;62.20
2539;DHT22;1280;49.760;9.664;2022-08-03T01:37:42;20.80;62.20
2539;DHT22;1280;49.760;9.664;2022-08-03T01:40:12;20.80;62.30
2539;DHT22;1280;49.760;9.664;2022-08-03T01:42:42;20.90;62.30
2539;DHT22;1280;49.760;9.664;2022-08-03T01:45:13;20.90;62.20
2539;DHT22;1280;49.760;9.664;2022-08-03T01:47:44;20.90;62.20
2539;DHT22;1280;49.760;9.664;2022-08-03T01:50:14;20.80;62.20
2539;DHT22;1280;49.760;9.664;2022-08-03T01:52:44;20.80;62.30
2539;DHT22;1280;49.760;9.664;2022-08-03T01:55:16;20.80;62.40
2539;DHT22;1280;49.760;9.664;2022-08-03T01:57:47;20.80;62.40
2539;DHT22;1280;49.760;9.664;2022-08-03T02:00:34;20.80;62.40
2539;DHT22;1280;49.760;9.664;2022-08-03T02:03:04;20.80;62.40
2539;DHT22;1280;49.760;9.664;2022-08-03T02:05:33;20.80;62.50
2539;DHT22;1280;49.760;9.664;2022-08-03T02:08:02;20.80;62.50
2539;DHT22;1280;49.760;9.664;2022-08-03T02:10:34;20.80;62.50
2539;DHT22;1280;49.760;9.664;2022-08-03T02:13:04;20.70;62.50
2539;DHT22;1280;49.760;9.664;2022-08-03T02:15:36;20.60;62.50
2539;DHT22;1280;49.760;9.664;2022-08-03T02:18:07;20.60;62.70
2539;DHT22;1280;49.760;9.664;2022-08-03T02:20:37;20.50;62.80
2539;DHT22;1280;49.760;9.664;2022-08-03T02:23:05;20.50;62.90
2539;DHT22;1280;49.760;9.664;2022-08-03T02:25:40;20.40;63.00
2539;DHT22;1280;49.760;9.664;2022-08-03T02:28:12;20.40;63.00
2539;DHT22;1280;49.760;9.664;2022-08-03T02:30:45;20.40;63.00
2539;DHT22;1280;49.760;9.664;2022-08-03T02:33:23;20.30;63.10
2539;DHT22;1280;49.760;9.664;2022-08-03T02:35:52;20.30;63.10
2539;DHT22;1280;49.760;9.664;2022-08-03T02:38:25;20.30;63.10
2539;DHT22;1280;49.760;9.664;2022-08-03T02:40:56;20.30;63.10
2539;DHT22;1280;49.760;9.664;2022-08-03T02:43:25;20.20;63.10
2539;DHT22;1280;49.760;9.664;2022-08-03T02:46:06;20.20;63.10
2539;DHT22;1280;49.760;9.664;2022-08-03T02:48:37;20.20;63.30
2539;DHT22;1280;49.760;9.664;2022-08-03T02:51:08;20.10;63.30
2539;DHT22;1280;49.760;9.664;2022-08-03T02:53:36;20.10;63.40
2539;DHT22;1280;49.760;9.664;2022-08-03T02:56:06;20.10;63.60
2539;DHT22;1280;49.760;9.664;2022-08-03T02:58:36;20.10;63.50
2539;DHT22;1280;49.760;9.664;2022-08-03T03:01:06;20.00;63.50
2539;DHT22;1280;49.760;9.664;2022-08-03T03:03:35;20.00;63.60
2539;DHT22;1280;49.760;9.664;2022-08-03T03:06:11;19.90;63.70
2539;DHT22;1280;49.760;9.664;2022-08-03T03:08:41;19.90;63.80
2539;DHT22;1280;49.760;9.664;2022-08-03T03:11:09;19.90;63.90
2539;DHT22;1280;49.760;9.664;2022-08-03T03:13:38;19.90;64.00
2539;DHT22;1280;49.760;9.664;2022-08-03T03:16:11;19.90;64.00
2539;DHT22;1280;49.760;9.664;2022-08-03T03:18:42;19.90;64.00
2539;DHT22;1280;49.760;9.664;2022-08-03T03:21:10;19.90;64.00
2539;DHT22;1280;49.760;9.664;2022-08-03T03:23:39;19.80;64.00
2539;DHT22;1280;49.760;9.664;2022-08-03T03:26:08;19.80;64.20
2539;DHT22;1280;49.760;9.664;2022-08-03T03:28:36;19.80;64.20
2539;DHT22;1280;49.760;9.664;2022-08-03T03:31:05;19.80;64.20
2539;DHT22;1280;49.760;9.664;2022-08-03T03:33:35;19.80;64.20
2539;DHT22;1280;49.760;9.664;2022-08-03T03:36:04;19.80;64.30
2539;DHT22;1280;49.760;9.664;2022-08-03T03:38:33;19.80;64.40
2539;DHT22;1280;49.760;9.664;2022-08-03T03:41:02;19.80;64.50
2539;DHT22;1280;49.760;9.664;2022-08-03T03:43:31;19.80;64.50
2539;DHT22;1280;49.760;9.664;2022-08-03T03:45:59;19.80;64.60
2539;DHT22;1280;49.760;9.664;2022-08-03T03:48:27;19.80;64.50
2539;DHT22;1280;49.760;9.664;2022-08-03T03:50:59;19.80;64.40
2539;DHT22;1280;49.760;9.664;2022-08-03T03:53:27;19.70;64.40
2539;DHT22;1280;49.760;9.664;2022-08-03T03:55:55;19.70;64.40
2539;DHT22;1280;49.760;9.664;2022-08-03T03:58:29;19.60;64.40
2539;DHT22;1280;49.760;9.664;2022-08-03T04:00:57;19.60;64.40
2539;DHT22;1280;49.760;9.664;2022-08-03T04:03:25;19.60;64.40
2539;DHT22;1280;49.760;9.664;2022-08-03T04:05:53;19.50;64.50
2539;DHT22;1280;49.760;9.664;2022-08-03T04:08:40;19.50;64.60
2539;DHT22;1280;49.760;9.664;2022-08-03T04:11:42;19.50;64.70
2539;DHT22;1280;49.760;9.664;2022-08-03T04:14:15;19.40;64.80
2539;DHT22;1280;49.760;9.664;2022-08-03T04:16:47;19.40;64.90
2539;DHT22;1280;49.760;9.664;2022-08-03T04:19:18;19.40;64.90
2539;DHT22;1280;49.760;9.664;2022-08-03T04:21:50;19.40;65.00
2539;DHT22;1280;49.760;9.664;2022-08-03T04:24:26;19.40;65.20
2539;DHT22;1280;49.760;9.664;2022-08-03T04:26:58;19.40;65.10
2539;DHT22;1280;49.760;9.664;2022-08-03T04:29:28;19.40;65.10
2539;DHT22;1280;49.760;9.664;2022-08-03T04:31:57;19.40;65.30
2539;DHT22;1280;49.760;9.664;2022-08-03T04:34:28;19.40;65.40
2539;DHT22;1280;49.760;9.664;2022-08-03T04:36:58;19.40;65.50
2539;DHT22;1280;49.760;9.664;2022-08-03T04:39:30;19.40;65.50
2539;DHT22;1280;49.760;9.664;2022-08-03T04:42:02;19.50;65.60
2539;DHT22;1280;49.760;9.664;2022-08-03T04:44:45;19.50;65.60
2539;DHT22;1280;49.760;9.664;2022-08-03T04:47:13;19.50;65.60
2539;DHT22;1280;49.760;9.664;2022-08-03T04:49:41;19.60;65.60
2539;DHT22;1280;49.760;9.664;2022-08-03T04:52:10;19.60;65.80
2539;DHT22;1280;49.760;9.664;2022-08-03T04:54:40;19.70;65.90
2539;DHT22;1280;49.760;9.664;2022-08-03T04:57:16;19.80;66.00
2539;DHT22;1280;49.760;9.664;2022-08-03T04:59:50;20.00;66.10
2539;DHT22;1280;49.760;9.664;2022-08-03T05:02:27;20.20;66.20
2539;DHT22;1280;49.760;9.664;2022-08-03T05:04:56;20.40;66.00
2539;DHT22;1280;49.760;9.664;2022-08-03T05:07:24;20.50;65.80
2539;DHT22;1280;49.760;9.664;2022-08-03T05:10:04;20.70;65.70
2539;DHT22;1280;49.760;9.664;2022-08-03T05:12:43;20.90;65.60
2539;DHT22;1280;49.760;9.664;2022-08-03T05:15:11;21.00;65.40
2539;DHT22;1280;49.760;9.664;2022-08-03T05:17:40;21.10;65.50
2539;DHT22;1280;49.760;9.664;2022-08-03T05:20:09;21.30;65.90
2539;DHT22;1280;49.760;9.664;2022-08-03T05:22:37;21.70;66.30
2539;DHT22;1280;49.760;9.664;2022-08-03T05:25:07;22.20;66.20
2539;DHT22;1280;49.760;9.664;2022-08-03T05:27:43;23.20;64.80
2539;DHT22;1280;49.760;9.664;2022-08-03T05:30:11;24.40;62.70
2539;DHT22;1280;49.760;9.664;2022-08-03T05:32:59;25.50;60.70
2539;DHT22;1280;49.760;9.664;2022-08-03T05:35:27;26.60;58.90
2539;DHT22;1280;49.760;9.664;2022-08-03T05:38:15;27.60;57.60
2539;DHT22;1280;49.760;9.664;2022-08-03T05:40:51;28.50;56.50
2539;DHT22;1280;49.760;9.664;2022-08-03T05:43:23;29.30;55.40
2539;DHT22;1280;49.760;9.664;2022-08-03T05:45:51;30.00;54.40
2539;DHT22;1280;49.760;9.664;2022-08-03T05:48:39;30.70;53.70
2539;DHT22;1280;49.760;9.664;2022-08-03T05:51:07;31.30;52.80
2539;DHT22;1280;49.760;9.664;2022-08-03T05:53:37;31.90;52.00
2539;DHT22;1280;49.760;9.664;2022-08-03T05:56:07;32.40;51.20
2539;DHT22;1280;49.760;9.664;2022-08-03T05:58:42;32.90;50.60
2539;DHT22;1280;49.760;9.664;2022-08-03T06:01:10;33.50;49.90
2539;DHT22;1280;49.760;9.664;2022-08-03T06:03:38;34.00;49.10
2539;DHT22;1280;49.760;9.664;2022-08-03T06:06:06;34.50;48.30
2539;DHT22;1280;49.760;9.664;2022-08-03T06:08:34;35.00;47.40
2539;DHT22;1280;49.760;9.664;2022-08-03T06:11:03;35.50;46.60
2539;DHT22;1280;49.760;9.664;2022-08-03T06:13:32;35.90;45.80
2539;DHT22;1280;49.760;9.664;2022-08-03T06:16:00;36.20;45.10
2539;DHT22;1280;49.760;9.664;2022-08-03T06:18:28;35.90;44.10
2539;DHT22;1280;49.760;9.664;2022-08-03T06:20:56;34.50;44.10
2539;DHT22;1280;49.760;9.664;2022-08-03T06:23:42;32.70;45.00
2539;DHT22;1280;49.760;9.664;2022-08-03T06:26:25;30.80;46.50
2539;DHT22;1280;49.760;9.664;2022-08-03T06:28:55;29.20;47.90
2539;DHT22;1280;49.760;9.664;2022-08-03T06:31:26;28.00;49.30
2539;DHT22;1280;49.760;9.664;2022-08-03T06:34:00;27.00;50.60
2539;DHT22;1280;49.760;9.664;2022-08-03T06:36:48;26.30;51.70
2539;DHT22;1280;49.760;9.664;2022-08-03T06:39:18;25.60;52.80
2539;DHT22;1280;49.760;9.664;2022-08-03T06:41:50;25.20;53.70
2539;DHT22;1280;49.760;9.664;2022-08-03T06:44:19;24.80;54.40
2539;DHT22;1280;49.760;9.664;2022-08-03T06:46:47;24.50;55.00
2539;DHT22;1280;49.760;9.664;2022-08-03T06:49:16;24.30;55.50
2539;DHT22;1280;49.760;9.664;2022-08-03T06:51:45;24.20;56.00
2539;DHT22;1280;49.760;9.664;2022-08-03T06:54:34;24.00;56.60
2539;DHT22;1280;49.760;9.664;2022-08-03T06:57:03;23.80;56.80
2539;DHT22;1280;49.760;9.664;2022-08-03T06:59:32;23.70;57.10
2539;DHT22;1280;49.760;9.664;2022-08-03T07:02:20;23.60;57.50
2539;DHT22;1280;49.760;9.664;2022-08-03T07:04:48;23.60;57.60
2539;DHT22;1280;49.760;9.664;2022-08-03T07:07:16;23.60;57.80
2539;DHT22;1280;49.760;9.664;2022-08-03T07:09:45;23.60;58.00
2539;DHT22;1280;49.760;9.664;2022-08-03T07:12:25;23.60;58.20
2539;DHT22;1280;49.760;9.664;2022-08-03T07:14:55;23.60;58.40
2539;DHT22;1280;49.760;9.664;2022-08-03T07:17:28;23.60;58.60
2539;DHT22;1280;49.760;9.664;2022-08-03T07:19:57;23.60;58.70
2539;DHT22;1280;49.760;9.664;2022-08-03T07:22:25;23.70;58.80
2539;DHT22;1280;49.760;9.664;2022-08-03T07:24:53;23.70;58.90
2539;DHT22;1280;49.760;9.664;2022-08-03T07:27:21;23.70;59.00
2539;DHT22;1280;49.760;9.664;2022-08-03T07:29:49;23.80;59.00
2539;DHT22;1280;49.760;9.664;2022-08-03T07:32:18;23.80;59.10
2539;DHT22;1280;49.760;9.664;2022-08-03T07:34:46;23.80;59.10
2539;DHT22;1280;49.760;9.664;2022-08-03T07:37:14;23.90;59.20
2539;DHT22;1280;49.760;9.664;2022-08-03T07:39:42;23.90;59.20
2539;DHT22;1280;49.760;9.664;2022-08-03T07:42:10;24.00;59.30
2539;DHT22;1280;49.760;9.664;2022-08-03T07:44:38;24.00;59.30
2539;DHT22;1280;49.760;9.664;2022-08-03T07:47:06;24.10;59.20
2539;DHT22;1280;49.760;9.664;2022-08-03T07:49:39;24.10;59.20
2539;DHT22;1280;49.760;9.664;2022-08-03T07:52:08;24.10;59.30
2539;DHT22;1280;49.760;9.664;2022-08-03T07:54:54;24.20;59.30
2539;DHT22;1280;49.760;9.664;2022-08-03T07:57:22;24.20;59.20
2539;DHT22;1280;49.760;9.664;2022-08-03T07:59:50;24.30;59.20
2539;DHT22;1280;49.760;9.664;2022-08-03T08:02:37;24.40;59.20
2539;DHT22;1280;49.760;9.664;2022-08-03T08:05:07;24.50;59.10
2539;DHT22;1280;49.760;9.664;2022-08-03T08:07:36;24.50;59.10
2539;DHT22;1280;49.760;9.664;2022-08-03T08:10:05;24.60;59.10
2539;DHT22;1280;49.760;9.664;2022-08-03T08:12:34;24.70;59.00
2539;DHT22;1280;49.760;9.664;2022-08-03T08:15:02;24.70;59.00
2539;DHT22;1280;49.760;9.664;2022-08-03T08:17:30;24.80;58.90
2539;DHT22;1280;49.760;9.664;2022-08-03T08:20:10;24.80;58.80
2539;DHT22;1280;49.760;9.664;2022-08-03T08:22:43;24.90;58.60
2539;DHT22;1280;49.760;9.664;2022-08-03T08:25:12;25.00;58.40
2539;DHT22;1280;49.760;9.664;2022-08-03T08:27:46;25.10;58.40
2539;DHT22;1280;49.760;9.664;2022-08-03T08:30:34;25.10;58.30
2539;DHT22;1280;49.760;9.664;2022-08-03T08:33:02;25.20;58.30
2539;DHT22;1280;49.760;9.664;2022-08-03T08:35:31;25.30;58.20
2539;DHT22;1280;49.760;9.664;2022-08-03T08:37:59;25.40;58.10
2539;DHT22;1280;49.760;9.664;2022-08-03T08:40:31;25.40;58.10
2539;DHT22;1280;49.760;9.664;2022-08-03T08:43:01;25.50;58.00
2539;DHT22;1280;49.760;9.664;2022-08-03T08:45:29;25.60;57.90
2539;DHT22;1280;49.760;9.664;2022-08-03T08:47:58;25.60;57.60
2539;DHT22;1280;49.760;9.664;2022-08-03T08:50:36;25.70;57.40
2539;DHT22;1280;49.760;9.664;2022-08-03T08:53:06;25.80;57.30
2539;DHT22;1280;49.760;9.664;2022-08-03T08:55:45;25.80;57.20
2539;DHT22;1280;49.760;9.664;2022-08-03T08:58:28;25.90;57.10
2539;DHT22;1280;49.760;9.664;2022-08-03T09:00:57;26.00;57.10
2539;DHT22;1280;49.760;9.664;2022-08-03T09:03:27;26.10;56.90
2539;DHT22;1280;49.760;9.664;2022-08-03T09:05:59;26.20;56.70
2539;DHT22;1280;49.760;9.664;2022-08-03T09:08:28;26.30;56.60
2539;DHT22;1280;49.760;9.664;2022-08-03T09:10:56;26.40;56.40
2539;DHT22;1280;49.760;9.664;2022-08-03T09:13:24;26.40;56.30
2539;DHT22;1280;49.760;9.664;2022-08-03T09:16:08;26.50;56.30
2539;DHT22;1280;49.760;9.664;2022-08-03T09:18:36;26.60;56.10
2539;DHT22;1280;49.760;9.664;2022-08-03T09:21:20;26.70;56.00
2539;DHT22;1280;49.760;9.664;2022-08-03T09:24:05;26.80;55.80
2539;DHT22;1280;49.760;9.664;2022-08-03T09:26:50;26.90;55.50
2539;DHT22;1280;49.760;9.664;2022-08-03T09:29:20;27.00;55.30
2539;DHT22;1280;49.760;9.664;2022-08-03T09:31:48;27.00;55.20
2539;DHT22;1280;49.760;9.664;2022-08-03T09:34:17;27.10;55.10
2539;DHT22;1280;49.760;9.664;2022-08-03T09:36:47;27.10;55.00
2539;DHT22;1280;49.760;9.664;2022-08-03T09:39:16;27.20;54.90
2539;DHT22;1280;49.760;9.664;2022-08-03T09:41:46;27.20;54.90
2539;DHT22;1280;49.760;9.664;2022-08-03T09:44:15;27.20;54.90
2539;DHT22;1280;49.760;9.664;2022-08-03T09:46:53;27.30;54.90
2539;DHT22;1280;49.760;9.664;2022-08-03T09:49:21;27.40;54.60
2539;DHT22;1280;49.760;9.664;2022-08-03T09:51:51;27.50;54.50
2539;DHT22;1280;49.760;9.664;2022-08-03T09:54:40;27.50;54.30
2539;DHT22;1280;49.760;9.664;2022-08-03T09:57:20;27.60;54.10
2539;DHT22;1280;49.760;9.664;2022-08-03T09:59:49;27.70;53.80
2539;DHT22;1280;49.760;9.664;2022-08-03T10:02:38;27.80;54.00
2539;DHT22;1280;49.760;9.664;2022-08-03T10:05:08;27.90;53.70
2539;DHT22;1280;49.760;9.664;2022-08-03T10:07:48;27.90;53.60
2539;DHT22;1280;49.760;9.664;2022-08-03T10:10:17;28.00;53.50
2539;DHT22;1280;49.760;9.664;2022-08-03T10:12:59;28.10;53.30
2539;DHT22;1280;49.760;9.664;2022-08-03T10:15:27;28.10;53.20
2539;DHT22;1280;49.760;9.664;2022-08-03T10:18:15;28.20;53.10
2539;DHT22;1280;49.760;9.664;2022-08-03T10:20:46;28.30;52.90
2539;DHT22;1280;49.760;9.664;2022-08-03T10:23:17;28.30;53.00
2539;DHT22;1280;49.760;9.664;2022-08-03T10:25:48;28.40;53.00
2539;DHT22;1280;49.760;9.664;2022-08-03T10:28:18;28.50;52.90
2539;DHT22;1280;49.760;9.664;2022-08-03T10:30:48;28.50;52.80
2539;DHT22;1280;49.760;9.664;2022-08-03T10:33:18;28.60;52.80
2539;DHT22;1280;49.760;9.664;2022-08-03T10:36:07;28.60;52.70
2539;DHT22;1280;49.760;9.664;2022-08-03T10:38:39;28.60;52.70
2539;DHT22;1280;49.760;9.664;2022-08-03T10:41:12;28.70;52.60
2539;DHT22;1280;49.760;9.664;2022-08-03T10:43:45;28.70;52.50
2539;DHT22;1280;49.760;9.664;2022-08-03T10:46:15;28.60;52.50
2539;DHT22;1280;49.760;9.664;2022-08-03T10:48:45;28.60;52.30
2539;DHT22;1280;49.760;9.664;2022-08-03T10:55:32;28.50;52.10
2539;DHT22;1280;49.760;9.664;2022-08-03T10:58:46;28.60;52.30
2539;DHT22;1280;49.760;9.664;2022-08-03T11:05:38;28.90;52.20
2539;DHT22;1280;49.760;9.664;2022-08-03T11:08:31;28.90;52.10
2539;DHT22;1280;49.760;9.664;2022-08-03T11:11:25;29.00;52.00
2539;DHT22;1280;49.760;9.664;2022-08-03T11:13:56;29.00;51.90
2539;DHT22;1280;49.760;9.664;2022-08-03T11:16:26;29.10;51.90
2539;DHT22;1280;49.760;9.664;2022-08-03T11:18:56;29.20;51.70
2539;DHT22;1280;49.760;9.664;2022-08-03T11:21:52;29.20;51.60
2539;DHT22;1280;49.760;9.664;2022-08-03T11:28:26;29.20;51.40
2539;DHT22;1280;49.760;9.664;2022-08-03T11:30:56;29.20;51.50
2539;DHT22;1280;49.760;9.664;2022-08-03T11:34:04;29.30;51.30
2539;DHT22;1280;49.760;9.664;2022-08-03T11:39:37;29.30;51.20
2539;DHT22;1280;49.760;9.664;2022-08-03T11:45:08;29.30;51.10
2539;DHT22;1280;49.760;9.664;2022-08-03T11:47:38;29.40;50.90
2539;DHT22;1280;49.760;9.664;2022-08-03T11:50:17;29.40;50.90
2539;DHT22;1280;49.760;9.664;2022-08-03T11:52:46;29.50;50.80
2539;DHT22;1280;49.760;9.664;2022-08-03T11:55:16;29.50;50.80
2539;DHT22;1280;49.760;9.664;2022-08-03T11:57:46;29.50;50.80
2539;DHT22;1280;49.760;9.664;2022-08-03T12:00:36;29.50;50.80
2539;DHT22;1280;49.760;9.664;2022-08-03T12:03:06;29.60;50.70
2539;DHT22;1280;49.760;9.664;2022-08-03T12:05:39;29.60;50.80
2539;DHT22;1280;49.760;9.664;2022-08-03T12:08:27;29.60;50.80
2539;DHT22;1280;49.760;9.664;2022-08-03T12:10:57;29.70;50.80
2539;DHT22;1280;49.760;9.664;2022-08-03T12:13:26;29.70;50.70
2539;DHT22;1280;49.760;9.664;2022-08-03T12:16:24;29.70;50.80
2539;DHT22;1280;49.760;9.664;2022-08-03T12:18:55;29.70;50.80
2539;DHT22;1280;49.760;9.664;2022-08-03T12:21:23;29.70;50.70
2539;DHT22;1280;49.760;9.664;2022-08-03T12:23:55;29.80;50.70
2539;DHT22;1280;49.760;9.664;2022-08-03T12:26:25;29.80;50.50
2539;DHT22;1280;49.760;9.664;2022-08-03T12:28:53;29.80;50.60
2539;DHT22;1280;49.760;9.664;2022-08-03T12:31:23;29.80;50.60
2539;DHT22;1280;49.760;9.664;2022-08-03T12:33:55;29.80;50.60
2539;DHT22;1280;49.760;9.664;2022-08-03T12:36:26;29.80;50.40
2539;DHT22;1280;49.760;9.664;2022-08-03T12:38:55;29.70;50.40
2539;DHT22;1280;49.760;9.664;2022-08-03T12:41:28;29.80;50.70
2539;DHT22;1280;49.760;9.664;2022-08-03T12:43:56;30.00;50.60
2539;DHT22;1280;49.760;9.664;2022-08-03T12:46:31;30.10;50.50
2539;DHT22;1280;49.760;9.664;2022-08-03T12:49:06;30.30;50.10
2539;DHT22;1280;49.760;9.664;2022-08-03T12:51:36;30.40;50.10
2539;DHT22;1280;49.760;9.664;2022-08-03T12:54:04;30.60;50.10
2539;DHT22;1280;49.760;9.664;2022-08-03T12:56:33;30.70;50.00
2539;DHT22;1280;49.760;9.664;2022-08-03T12:59:22;30.80;50.10
2539;DHT22;1280;49.760;9.664;2022-08-03T13:01:59;30.90;49.90
2539;DHT22;1280;49.760;9.664;2022-08-03T13:04:32;31.00;49.90
2539;DHT22;1280;49.760;9.664;2022-08-03T13:07:02;31.10;49.80
2539;DHT22;1280;49.760;9.664;2022-08-03T13:09:40;31.20;49.60
2539;DHT22;1280;49.760;9.664;2022-08-03T13:12:10;31.20;49.70
2539;DHT22;1280;49.760;9.664;2022-08-03T13:14:39;31.30;49.70
2539;DHT22;1280;49.760;9.664;2022-08-03T13:17:08;31.40;49.70
2539;DHT22;1280;49.760;9.664;2022-08-03T13:19:37;31.40;49.60
2539;DHT22;1280;49.760;9.664;2022-08-03T13:22:13;31.40;49.50
2539;DHT22;1280;49.760;9.664;2022-08-03T13:24:42;31.40;49.10
2539;DHT22;1280;49.760;9.664;2022-08-03T13:27:10;31.50;49.40
2539;DHT22;1280;49.760;9.664;2022-08-03T13:29:59;31.50;49.30
2539;DHT22;1280;49.760;9.664;2022-08-03T13:32:28;31.50;49.30
2539;DHT22;1280;49.760;9.664;2022-08-03T13:34:56;31.50;49.30
2539;DHT22;1280;49.760;9.664;2022-08-03T13:37:24;31.40;49.20
2539;DHT22;1280;49.760;9.664;2022-08-03T13:39:53;31.40;49.20
2539;DHT22;1280;49.760;9.664;2022-08-03T13:42:29;31.40;49.20
2539;DHT22;1280;49.760;9.664;2022-08-03T13:44:59;31.40;49.20
2539;DHT22;1280;49.760;9.664;2022-08-03T13:47:28;31.30;49.20
2539;DHT22;1280;49.760;9.664;2022-08-03T13:49:56;31.40;49.20
2539;DHT22;1280;49.760;9.664;2022-08-03T13:52:32;31.40;49.20
2539;DHT22;1280;49.760;9.664;2022-08-03T13:55:01;31.50;49.10
2539;DHT22;1280;49.760;9.664;2022-08-03T13:57:30;31.50;49.10
2539;DHT22;1280;49.760;9.664;2022-08-03T14:00:18;31.60;49.10
2539;DHT22;1280;49.760;9.664;2022-08-03T14:02:56;31.60;49.10
2539;DHT22;1280;49.760;9.664;2022-08-03T14:05:33;31.70;49.10
2539;DHT22;1280;49.760;9.664;2022-08-03T14:08:01;31.80;49.00
2539;DHT22;1280;49.760;9.664;2022-08-03T14:10:35;31.80;48.90
2539;DHT22;1280;49.760;9.664;2022-08-03T14:13:04;31.70;48.80
2539;DHT22;1280;49.760;9.664;2022-08-03T14:15:33;31.70;48.80
2539;DHT22;1280;49.760;9.664;2022-08-03T14:18:05;31.60;48.80
2539;DHT22;1280;49.760;9.664;2022-08-03T14:20:42;31.60;48.80
2539;DHT22;1280;49.760;9.664;2022-08-03T14:23:16;31.60;48.80
2539;DHT22;1280;49.760;9.664;2022-08-03T14:25:44;31.70;48.80
2539;DHT22;1280;49.760;9.664;2022-08-03T14:28:24;31.70;49.00
2539;DHT22;1280;49.760;9.664;2022-08-03T14:30:53;31.80;48.90
2539;DHT22;1280;49.760;9.664;2022-08-03T14:33:23;31.80;48.80
2539;DHT22;1280;49.760;9.664;2022-08-03T14:35:52;31.90;48.60
2539;DHT22;1280;49.760;9.664;2022-08-03T14:38:20;32.00;48.60
2539;DHT22;1280;49.760;9.664;2022-08-03T14:40:49;32.00;48.50
2539;DHT22;1280;49.760;9.664;2022-08-03T14:43:18;32.00;48.40
2539;DHT22;1280;49.760;9.664;2022-08-03T14:45:47;32.00;48.40
2539;DHT22;1280;49.760;9.664;2022-08-03T14:48:18;32.00;48.40
2539;DHT22;1280;49.760;9.664;2022-08-03T14:51:07;32.10;48.20
2539;DHT22;1280;49.760;9.664;2022-08-03T14:53:36;32.10;48.20
2539;DHT22;1280;49.760;9.664;2022-08-03T14:56:04;32.10;48.20
2539;DHT22;1280;49.760;9.664;2022-08-03T14:58:36;32.10;48.20
2539;DHT22;1280;49.760;9.664;2022-08-03T15:01:04;32.10;48.00
2539;DHT22;1280;49.760;9.664;2022-08-03T15:03:53;32.10;48.10
2539;DHT22;1280;49.760;9.664;2022-08-03T15:06:23;32.10;48.10
2539;DHT22;1280;49.760;9.664;2022-08-03T15:08:51;32.10;48.10
2539;DHT22;1280;49.760;9.664;2022-08-03T15:11:40;32.10;48.10
2539;DHT22;1280;49.760;9.664;2022-08-03T15:14:08;32.10;48.00
2539;DHT22;1280;49.760;9.664;2022-08-03T15:16:39;32.10;48.00
2539;DHT22;1280;49.760;9.664;2022-08-03T15:19:07;32.10;48.00
2539;DHT22;1280;49.760;9.664;2022-08-03T15:21:57;32.10;48.00
2539;DHT22;1280;49.760;9.664;2022-08-03T15:24:27;32.20;48.10
2539;DHT22;1280;49.760;9.664;2022-08-03T15:26:55;32.30;48.20
2539;DHT22;1280;49.760;9.664;2022-08-03T15:29:23;32.30;48.00
2539;DHT22;1280;49.760;9.664;2022-08-03T15:32:12;32.40;47.90
2539;DHT22;1280;49.760;9.664;2022-08-03T15:34:39;32.40;47.90
2539;DHT22;1280;49.760;9.664;2022-08-03T15:37:18;32.50;47.80
2539;DHT22;1280;49.760;9.664;2022-08-03T15:39:46;32.50;47.70
2539;DHT22;1280;49.760;9.664;2022-08-03T15:42:26;32.50;47.50
2539;DHT22;1280;49.760;9.664;2022-08-03T15:44:55;32.50;47.60
2539;DHT22;1280;49.760;9.664;2022-08-03T15:47:23;32.50;47.50
2539;DHT22;1280;49.760;9.664;2022-08-03T15:49:51;32.60;47.50
2539;DHT22;1280;49.760;9.664;2022-08-03T15:52:21;32.50;47.50
2539;DHT22;1280;49.760;9.664;2022-08-03T15:54:49;32.60;47.40
2539;DHT22;1280;49.760;9.664;2022-08-03T15:57:17;32.60;47.40
2539;DHT22;1280;49.760;9.664;2022-08-03T15:59:45;32.60;47.30
2539;DHT22;1280;49.760;9.664;2022-08-03T16:02:14;32.60;47.20
2539;DHT22;1280;49.760;9.664;2022-08-03T16:04:42;32.60;47.20
2539;DHT22;1280;49.760;9.664;2022-08-03T16:07:10;32.70;47.10
2539;DHT22;1280;49.760;9.664;2022-08-03T16:09:42;32.70;47.00
2539;DHT22;1280;49.760;9.664;2022-08-03T16:12:10;32.70;47.00
2539;DHT22;1280;49.760;9.664;2022-08-03T16:14:42;32.70;47.00
2539;DHT22;1280;49.760;9.664;2022-08-03T16:17:18;32.70;47.00
2539;DHT22;1280;49.760;9.664;2022-08-03T16:19:47;32.60;46.90
2539;DHT22;1280;49.760;9.664;2022-08-03T16:22:15;32.60;47.00
2539;DHT22;1280;49.760;9.664;2022-08-03T16:24:49;32.70;47.00
2539;DHT22;1280;49.760;9.664;2022-08-03T16:27:17;32.70;47.10
2539;DHT22;1280;49.760;9.664;2022-08-03T16:30:06;32.70;47.10
2539;DHT22;1280;49.760;9.664;2022-08-03T16:32:35;32.70;47.10
2539;DHT22;1280;49.760;9.664;2022-08-03T16:35:06;32.70;47.10
2539;DHT22;1280;49.760;9.664;2022-08-03T16:37:35;32.70;47.20
2539;DHT22;1280;49.760;9.664;2022-08-03T16:40:09;32.70;47.10
2539;DHT22;1280;49.760;9.664;2022-08-03T16:42:45;32.70;47.10
2539;DHT22;1280;49.760;9.664;2022-08-03T16:45:13;32.70;47.00
2539;DHT22;1280;49.760;9.664;2022-08-03T16:47:41;32.70;46.90
2539;DHT22;1280;49.760;9.664;2022-08-03T16:50:09;32.70;46.90
2539;DHT22;1280;49.760;9.664;2022-08-03T16:52:47;32.60;46.90
2539;DHT22;1280;49.760;9.664;2022-08-03T16:55:17;32.60;46.80
2539;DHT22;1280;49.760;9.664;2022-08-03T16:58:05;32.50;46.90